createdAt,value
2022-10-09T00:00:52.571Z,7.55
2022-10-09T00:03:19.571Z,7.35
2022-10-09T00:05:46.510Z,6.30
2022-10-09T00:08:13.205Z,6.53
2022-10-09T00:10:43.902Z,8.73
2022-10-09T00:13:13.516Z,9.50
2022-10-09T00:15:45.016Z,6.63
2022-10-09T00:18:14.186Z,10.53
2022-10-09T00:20:44.364Z,7.70
2022-10-09T00:23:14.586Z,9.77
2022-10-09T00:25:52.458Z,8.35
2022-10-09T00:28:19.709Z,9.35
2022-10-09T00:30:46.477Z,9.97
2022-10-09T00:33:13.236Z,8.48
2022-10-09T00:35:40.091Z,9.98
2022-10-09T00:38:07.081Z,12.10
2022-10-09T00:40:35.345Z,6.68
2022-10-09T00:43:03.032Z,8.90
2022-10-09T00:45:30.587Z,9.05
2022-10-09T00:48:06.348Z,12.45
2022-10-09T00:50:41.929Z,13.15
2022-10-09T00:53:12.625Z,12.57
2022-10-09T00:55:40.337Z,13.57
2022-10-09T00:58:08.192Z,13.98
2022-10-09T01:00:34.951Z,14.15
2022-10-09T01:03:01.636Z,19.67
2022-10-09T01:05:42.035Z,22.33
2022-10-09T01:08:19.208Z,19.80
2022-10-09T01:11:08.872Z,18.75
2022-10-09T01:13:55.119Z,12.45
2022-10-09T01:16:27.250Z,14.50
2022-10-09T01:19:02.792Z,15.07
2022-10-09T01:21:38.485Z,11.87
2022-10-09T01:24:17.162Z,11.02
2022-10-09T01:27:14.491Z,12.63
2022-10-09T01:29:48.838Z,11.25
2022-10-09T01:32:21.041Z,10.82
2022-10-09T01:34:49.473Z,9.93
2022-10-09T01:37:19.118Z,7.70
2022-10-09T01:39:47.474Z,7.70
2022-10-09T01:42:15.929Z,9.82
2022-10-09T01:44:42.873Z,10.20
2022-10-09T01:47:17.837Z,9.40
2022-10-09T01:50:08.758Z,9.82
2022-10-09T01:52:43.009Z,11.23
2022-10-09T01:55:20.208Z,10.18
2022-10-09T01:57:58.952Z,5.50
2022-10-09T02:00:27.127Z,7.40
2022-10-09T02:02:55.013Z,8.57
2022-10-09T02:05:26.153Z,8.60
2022-10-09T02:07:54.164Z,10.82
2022-10-09T02:10:23.308Z,8.45
2022-10-09T02:12:56.027Z,11.20
2022-10-09T02:15:27.734Z,11.68
2022-10-09T02:17:59.482Z,11.18
2022-10-09T02:20:31.246Z,9.82
2022-10-09T02:23:00.284Z,9.95
2022-10-09T02:25:27.074Z,9.27
2022-10-09T02:27:55.622Z,7.60
2022-10-09T02:30:25.139Z,11.52
2022-10-09T02:32:53.315Z,11.18
2022-10-09T02:35:20.573Z,13.05
2022-10-09T02:37:49.067Z,11.23
2022-10-09T02:40:16.265Z,9.85
2022-10-09T02:42:43.201Z,11.98
2022-10-09T02:45:10.369Z,11.57
2022-10-09T02:47:37.040Z,11.23
2022-10-09T02:50:03.991Z,17.03
2022-10-09T02:52:30.628Z,12.70
2022-10-09T02:54:57.290Z,11.55
2022-10-09T02:57:23.986Z,10.25
2022-10-09T02:59:50.756Z,10.90
2022-10-09T03:02:18.097Z,10.87
2022-10-09T03:04:44.826Z,8.02
2022-10-09T03:07:11.488Z,14.48
2022-10-09T03:09:38.151Z,13.77
2022-10-09T03:12:05.141Z,8.65
2022-10-09T03:14:31.825Z,10.63
2022-10-09T03:16:58.481Z,8.85
2022-10-09T03:19:25.156Z,10.60
2022-10-09T03:21:51.857Z,9.00
2022-10-09T03:24:18.505Z,12.20
2022-10-09T03:26:45.194Z,11.37
2022-10-09T03:29:11.860Z,16.45
2022-10-09T03:31:54.089Z,16.80
2022-10-09T03:34:20.866Z,14.77
2022-10-09T03:36:47.561Z,10.85
2022-10-09T03:39:14.379Z,10.93
2022-10-09T03:41:41.049Z,9.82
2022-10-09T03:44:07.765Z,6.82
2022-10-09T03:46:34.518Z,8.48
2022-10-09T03:49:01.318Z,10.63
2022-10-09T03:51:28.219Z,7.13
2022-10-09T03:53:54.877Z,11.30
2022-10-09T03:56:21.531Z,5.65
2022-10-09T03:58:48.223Z,8.40
2022-10-09T04:01:14.967Z,7.13
2022-10-09T04:03:41.676Z,6.07
2022-10-09T04:06:08.334Z,7.63
2022-10-09T04:08:35.557Z,12.45
2022-10-09T04:11:03.093Z,14.38
2022-10-09T04:13:29.768Z,12.93
2022-10-09T04:15:57.052Z,15.47
2022-10-09T04:18:25.121Z,22.08
2022-10-09T04:20:53.731Z,15.50
2022-10-09T04:23:23.213Z,11.82
2022-10-09T04:25:53.843Z,12.10
2022-10-09T04:28:21.032Z,12.37
2022-10-09T04:30:47.708Z,13.07
2022-10-09T04:33:14.569Z,12.70
2022-10-09T04:35:45.326Z,10.75
2022-10-09T04:38:12.390Z,9.60
2022-10-09T04:40:39.113Z,10.47
2022-10-09T04:43:05.835Z,10.73
2022-10-09T04:45:32.657Z,8.23
2022-10-09T04:47:59.382Z,9.40
2022-10-09T04:50:26.139Z,8.20
2022-10-09T04:52:58.524Z,16.83
2022-10-09T04:55:25.504Z,7.15
2022-10-09T04:57:52.259Z,9.82
2022-10-09T05:00:19.209Z,10.80
2022-10-09T05:02:46.135Z,10.30
2022-10-09T05:05:12.964Z,8.80
2022-10-09T05:07:39.645Z,7.35
2022-10-09T05:10:07.300Z,11.77
2022-10-09T05:12:34.000Z,10.90
2022-10-09T05:15:00.676Z,8.00
2022-10-09T05:17:27.907Z,11.33
2022-10-09T05:19:54.685Z,7.88
2022-10-09T05:22:21.470Z,11.85
2022-10-09T05:24:48.131Z,11.85
2022-10-09T05:27:14.826Z,7.25
2022-10-09T05:29:41.507Z,8.33
2022-10-09T05:32:08.257Z,6.95
2022-10-09T05:34:35.284Z,11.70
2022-10-09T05:37:01.939Z,11.52
2022-10-09T05:39:28.652Z,8.32
2022-10-09T05:41:55.322Z,7.00
2022-10-09T05:44:22.146Z,5.07
2022-10-09T05:46:48.830Z,8.43
2022-10-09T05:49:15.550Z,6.53
2022-10-09T05:51:45.140Z,6.53
2022-10-09T05:54:16.728Z,8.27
2022-10-09T05:56:44.719Z,12.68
2022-10-09T05:59:21.650Z,8.13
2022-10-09T06:01:50.597Z,5.90
2022-10-09T06:04:20.431Z,9.02
2022-10-09T06:06:48.506Z,8.03
2022-10-09T06:09:24.202Z,8.63
2022-10-09T06:11:52.121Z,6.72
2022-10-09T06:14:21.802Z,9.13
2022-10-09T06:16:48.756Z,13.38
2022-10-09T06:19:17.765Z,11.53
2022-10-09T06:21:45.464Z,10.98
2022-10-09T06:24:22.179Z,8.98
2022-10-09T06:26:51.114Z,7.88
2022-10-09T06:29:17.844Z,12.98
2022-10-09T06:31:44.500Z,9.70
2022-10-09T06:34:11.345Z,9.85
2022-10-09T06:36:38.033Z,7.30
2022-10-09T06:39:07.403Z,10.18
2022-10-09T06:41:34.907Z,12.77
2022-10-09T06:44:16.596Z,11.33
2022-10-09T06:46:44.988Z,9.93
2022-10-09T06:49:12.178Z,9.43
2022-10-09T06:51:39.118Z,7.45
2022-10-09T06:54:11.296Z,9.15
2022-10-09T06:56:37.972Z,9.53
2022-10-09T06:59:06.545Z,9.15
2022-10-09T07:01:34.698Z,7.45
2022-10-09T07:04:11.315Z,9.30
2022-10-09T07:06:40.635Z,4.82
2022-10-09T07:09:11.960Z,9.03
2022-10-09T07:11:42.865Z,10.82
2022-10-09T07:14:11.433Z,10.57
2022-10-09T07:16:40.365Z,8.50
2022-10-09T07:19:10.906Z,9.02
2022-10-09T07:21:39.607Z,12.93
2022-10-09T07:24:07.166Z,9.00
2022-10-09T07:26:36.717Z,10.30
2022-10-09T07:29:06.544Z,8.60
2022-10-09T07:31:33.268Z,12.02
2022-10-09T07:34:00.054Z,9.20
2022-10-09T07:36:27.033Z,12.15
2022-10-09T07:38:56.987Z,18.30
2022-10-09T07:41:26.296Z,16.92
2022-10-09T07:43:53.511Z,10.80
2022-10-09T07:46:22.435Z,11.83
2022-10-09T07:48:50.728Z,11.40
2022-10-09T07:51:28.972Z,17.95
2022-10-09T07:53:57.159Z,18.02
2022-10-09T07:56:26.586Z,17.30
2022-10-09T07:58:55.454Z,11.63
2022-10-09T08:01:23.350Z,13.43
2022-10-09T08:03:50.542Z,13.80
2022-10-09T08:06:18.236Z,14.20
2022-10-09T08:08:45.737Z,13.52
2022-10-09T08:11:14.954Z,16.63
2022-10-09T08:13:42.932Z,9.82
2022-10-09T08:16:10.043Z,14.88
2022-10-09T08:18:37.291Z,12.55
2022-10-09T08:21:07.974Z,13.75
2022-10-09T08:23:34.855Z,14.27
2022-10-09T08:26:01.871Z,13.45
2022-10-09T08:28:28.814Z,10.98
2022-10-09T08:30:55.703Z,14.27
2022-10-09T08:33:24.862Z,16.35
2022-10-09T08:35:52.094Z,10.33
2022-10-09T08:38:44.871Z,12.60
2022-10-09T08:41:23.653Z,11.70
2022-10-09T08:43:56.097Z,11.85
2022-10-09T08:46:29.078Z,12.10
2022-10-09T08:48:56.236Z,11.97
2022-10-09T08:51:29.498Z,12.10
2022-10-09T08:54:09.170Z,13.05
2022-10-09T08:56:36.330Z,12.43
2022-10-09T08:59:03.016Z,11.40
2022-10-09T09:01:41.712Z,12.07
2022-10-09T09:04:32.601Z,11.73
2022-10-09T09:07:22.495Z,11.35
2022-10-09T09:10:03.153Z,13.43
2022-10-09T09:12:50.620Z,10.20
2022-10-09T09:15:44.713Z,15.40
2022-10-09T09:18:32.017Z,10.52
2022-10-09T09:21:05.298Z,14.23
2022-10-09T09:23:39.598Z,9.05
2022-10-09T09:26:14.645Z,12.55
2022-10-09T09:28:42.498Z,16.37
2022-10-09T09:31:21.071Z,11.68
2022-10-09T09:34:04.185Z,10.05
2022-10-09T09:36:48.683Z,10.93
2022-10-09T09:42:21.453Z,12.77
2022-10-09T09:44:56.225Z,11.80
2022-10-09T09:47:41.610Z,17.42
2022-10-09T09:50:23.387Z,14.50
2022-10-09T09:52:56.783Z,7.80
2022-10-09T09:55:27.422Z,9.97
2022-10-09T09:58:05.697Z,11.60
2022-10-09T10:00:33.700Z,12.82
2022-10-09T10:03:13.569Z,12.75
2022-10-09T10:05:41.927Z,12.27
2022-10-09T10:08:26.428Z,13.30
2022-10-09T10:11:02.725Z,9.30
2022-10-09T10:13:46.513Z,9.48
2022-10-09T10:16:23.432Z,8.68
2022-10-09T10:18:50.719Z,11.60
2022-10-09T10:21:19.265Z,11.13
2022-10-09T10:23:56.009Z,13.10
2022-10-09T10:26:28.477Z,10.75
2022-10-09T10:29:02.533Z,11.80
2022-10-09T10:31:53.678Z,32.92
2022-10-09T10:34:44.984Z,11.10
2022-10-09T10:37:32.963Z,17.95
2022-10-09T10:40:07.313Z,13.23
2022-10-09T10:42:48.500Z,10.45
2022-10-09T10:45:24.445Z,11.57
2022-10-09T10:47:57.040Z,10.13
2022-10-09T10:50:29.477Z,10.93
2022-10-09T10:53:02.723Z,10.30
2022-10-09T10:55:55.692Z,10.77
2022-10-09T10:58:38.176Z,9.27
2022-10-09T11:01:31.176Z,10.33
2022-10-09T11:04:10.274Z,9.38
2022-10-09T11:06:59.332Z,19.08
2022-10-09T11:09:32.777Z,9.75
2022-10-09T11:12:19.546Z,9.07
2022-10-09T11:15:25.301Z,10.80
2022-10-09T11:17:57.874Z,11.45
2022-10-09T11:20:53.201Z,8.57
2022-10-09T11:23:38.149Z,10.15
2022-10-09T11:26:37.049Z,13.45
2022-10-09T11:29:15.162Z,7.67
2022-10-09T11:32:10.401Z,8.50
2022-10-09T11:34:58.451Z,10.18
2022-10-09T11:37:29.742Z,10.30
2022-10-09T11:39:56.955Z,8.93
2022-10-09T11:42:26.059Z,7.60
2022-10-09T11:45:14.608Z,8.65
2022-10-09T11:48:04.005Z,7.75
2022-10-09T11:50:48.732Z,9.07
2022-10-09T11:53:18.150Z,7.85
2022-10-09T11:55:45.801Z,9.67
2022-10-09T11:58:25.887Z,7.18
2022-10-09T12:00:55.985Z,9.35
2022-10-09T12:03:35.950Z,8.88
2022-10-09T12:06:07.752Z,8.43
2022-10-09T12:08:35.610Z,8.50
2022-10-09T12:11:18.430Z,5.80
2022-10-09T12:13:54.882Z,8.35
2022-10-09T12:16:44.909Z,7.57
2022-10-09T12:19:23.723Z,9.38
2022-10-09T12:22:00.734Z,7.93
2022-10-09T12:24:33.277Z,5.88
2022-10-09T12:27:03.197Z,8.30
2022-10-09T12:29:53.603Z,8.18
2022-10-09T12:32:31.301Z,7.10
2022-10-09T12:34:59.039Z,10.00
2022-10-09T12:37:35.437Z,6.25
2022-10-09T12:40:14.312Z,11.02
2022-10-09T12:42:42.671Z,9.70
2022-10-09T12:45:21.267Z,6.90
2022-10-09T12:47:48.762Z,7.37
2022-10-09T12:50:24.315Z,7.32
2022-10-09T12:52:57.466Z,6.88
2022-10-09T12:55:31.094Z,8.07
2022-10-09T12:58:28.928Z,5.53
2022-10-09T13:01:01.953Z,7.20
2022-10-09T13:03:36.067Z,6.40
2022-10-09T13:06:05.749Z,6.57
2022-10-09T13:08:35.958Z,8.23
2022-10-09T13:11:28.541Z,12.27
2022-10-09T13:13:55.393Z,8.00
2022-10-09T13:16:23.187Z,4.45
2022-10-09T13:19:02.380Z,8.27
2022-10-09T13:21:34.428Z,9.25
2022-10-09T13:24:13.189Z,7.03
2022-10-09T13:26:42.739Z,7.67
2022-10-09T13:29:11.873Z,6.95
2022-10-09T13:31:43.431Z,9.25
2022-10-09T13:34:12.928Z,8.73
2022-10-09T13:36:40.412Z,8.88
2022-10-09T13:39:07.131Z,7.20
2022-10-09T13:41:33.926Z,9.15
2022-10-09T13:44:00.669Z,11.10
2022-10-09T13:46:27.358Z,9.65
2022-10-09T13:48:54.053Z,6.82
2022-10-09T13:51:20.757Z,8.50
2022-10-09T13:53:47.469Z,5.60
2022-10-09T13:56:14.125Z,6.72
2022-10-09T13:58:40.856Z,7.13
2022-10-09T14:01:09.391Z,5.95
2022-10-09T14:03:36.132Z,7.57
2022-10-09T14:06:03.819Z,6.53
2022-10-09T14:08:31.162Z,8.20
2022-10-09T14:11:01.615Z,6.68
2022-10-09T14:13:29.082Z,8.15
2022-10-09T14:15:56.066Z,7.40
2022-10-09T14:18:22.728Z,11.43
2022-10-09T14:20:49.574Z,6.40
2022-10-09T14:23:16.264Z,6.82
2022-10-09T14:25:42.936Z,8.15
2022-10-09T14:28:09.779Z,6.97
2022-10-09T14:30:40.827Z,9.93
2022-10-09T14:33:07.538Z,8.00
2022-10-09T14:35:34.499Z,6.57
2022-10-09T14:38:01.383Z,8.63
2022-10-09T14:40:28.079Z,6.17
2022-10-09T14:42:54.712Z,8.02
2022-10-09T14:45:21.377Z,8.45
2022-10-09T14:47:48.073Z,9.52
2022-10-09T14:50:14.797Z,7.43
2022-10-09T14:52:42.191Z,6.10
2022-10-09T14:55:09.098Z,6.75
2022-10-09T14:57:35.953Z,8.05
2022-10-09T15:00:04.970Z,9.10
2022-10-09T15:02:31.753Z,10.68
2022-10-09T15:04:58.448Z,6.93
2022-10-09T15:07:27.910Z,10.35
2022-10-09T15:09:55.273Z,8.20
2022-10-09T15:12:21.993Z,8.98
2022-10-09T15:14:48.686Z,6.15
2022-10-09T15:17:15.375Z,5.80
2022-10-09T15:19:42.017Z,7.75
2022-10-09T15:22:08.780Z,8.73
2022-10-09T15:24:35.523Z,10.10
2022-10-09T15:27:02.238Z,5.45
2022-10-09T15:29:28.890Z,4.30
2022-10-09T15:31:55.684Z,8.52
2022-10-09T15:34:22.414Z,7.18
2022-10-09T15:36:49.259Z,13.50
2022-10-09T15:39:15.928Z,7.85
2022-10-09T15:41:43.286Z,5.97
2022-10-09T15:44:19.344Z,5.40
2022-10-09T15:46:47.532Z,6.32
2022-10-09T15:49:14.505Z,7.45
2022-10-09T15:51:42.426Z,5.22
2022-10-09T15:54:10.648Z,5.27
2022-10-09T15:56:39.977Z,5.68
2022-10-09T15:59:10.303Z,5.35
2022-10-09T16:01:37.103Z,8.13
2022-10-09T16:04:03.776Z,6.47
2022-10-09T16:06:30.473Z,5.07
2022-10-09T16:08:58.394Z,8.20
2022-10-09T16:11:26.693Z,6.78
2022-10-09T16:13:54.200Z,5.45
2022-10-09T16:16:23.186Z,8.73
2022-10-09T16:18:50.450Z,6.67
2022-10-09T16:21:19.794Z,7.97
2022-10-09T16:23:47.408Z,14.07
2022-10-09T16:26:18.881Z,6.72
2022-10-09T16:28:46.958Z,7.15
2022-10-09T16:31:20.667Z,6.03
2022-10-09T16:33:47.908Z,9.85
2022-10-09T16:36:15.242Z,5.38
2022-10-09T16:38:42.277Z,5.35
2022-10-09T16:41:10.811Z,5.10
2022-10-09T16:43:38.264Z,6.83
2022-10-09T16:46:15.010Z,5.93
2022-10-09T16:48:42.015Z,6.30
2022-10-09T16:51:10.716Z,10.27
2022-10-09T16:53:37.496Z,6.07
2022-10-09T16:56:13.158Z,6.93
2022-10-09T16:58:41.812Z,9.40
2022-10-09T17:01:10.546Z,8.80
2022-10-09T17:03:40.401Z,8.60
2022-10-09T17:06:16.315Z,5.22
2022-10-09T17:08:43.042Z,6.23
2022-10-09T17:11:11.829Z,8.75
2022-10-09T17:13:39.171Z,10.35
2022-10-09T17:16:08.333Z,7.88
2022-10-09T17:18:36.026Z,9.10
2022-10-09T17:21:08.102Z,6.33
2022-10-09T17:23:35.414Z,6.22
2022-10-09T17:26:11.581Z,9.70
2022-10-09T17:28:39.330Z,8.93
2022-10-09T17:31:08.104Z,8.25
2022-10-09T17:33:41.014Z,10.57
2022-10-09T17:36:09.090Z,7.68
2022-10-09T17:38:36.083Z,8.90
2022-10-09T17:41:06.795Z,8.13
2022-10-09T17:43:33.686Z,11.68
2022-10-09T17:46:00.888Z,7.70
2022-10-09T17:48:28.137Z,8.23
2022-10-09T17:50:57.146Z,8.73
2022-10-09T17:53:24.492Z,7.85
2022-10-09T17:55:53.050Z,10.02
2022-10-09T17:58:23.164Z,9.30
2022-10-09T18:00:50.871Z,8.10
2022-10-09T18:03:18.049Z,6.68
2022-10-09T18:05:49.717Z,8.32
2022-10-09T18:08:18.523Z,9.45
2022-10-09T18:10:45.910Z,11.37
2022-10-09T18:13:12.669Z,10.30
2022-10-09T18:15:43.839Z,11.60
2022-10-09T18:18:11.546Z,10.48
2022-10-09T18:20:39.579Z,15.25
2022-10-09T18:23:07.660Z,18.47
2022-10-09T18:25:35.275Z,9.68
2022-10-09T18:28:02.393Z,10.52
2022-10-09T18:30:29.113Z,14.13
2022-10-09T18:32:55.858Z,10.02
2022-10-09T18:35:22.616Z,11.13
2022-10-09T18:37:49.281Z,15.18
2022-10-09T18:40:16.012Z,12.35
2022-10-09T18:42:42.867Z,12.13
2022-10-09T18:45:13.433Z,10.82
2022-10-09T18:47:40.973Z,10.37
2022-10-09T18:50:10.941Z,13.25
2022-10-09T18:52:39.966Z,9.73
2022-10-09T18:55:09.520Z,10.57
2022-10-09T18:57:38.421Z,9.60
2022-10-09T19:00:05.850Z,9.63
2022-10-09T19:02:32.868Z,9.30
2022-10-09T19:04:59.618Z,20.25
2022-10-09T19:07:26.685Z,18.08
2022-10-09T19:09:57.176Z,10.18
2022-10-09T19:12:24.958Z,8.37
2022-10-09T19:14:52.257Z,11.02
2022-10-09T19:17:19.366Z,11.05
2022-10-09T19:19:46.086Z,10.80
2022-10-09T19:22:16.609Z,10.98
2022-10-09T19:24:44.985Z,15.23
2022-10-09T19:27:11.886Z,8.55
2022-10-09T19:29:38.719Z,14.05
2022-10-09T19:32:05.390Z,12.80
2022-10-09T19:34:32.110Z,13.35
2022-10-09T19:36:59.209Z,13.07
2022-10-09T19:39:26.065Z,14.13
2022-10-09T19:41:52.814Z,13.70
2022-10-09T19:44:19.545Z,28.50
2022-10-09T19:46:46.702Z,17.13
2022-10-09T19:49:13.526Z,11.77
2022-10-09T19:51:40.376Z,14.80
2022-10-09T19:54:09.337Z,16.25
2022-10-09T19:56:37.072Z,14.52
2022-10-09T19:59:07.238Z,20.73
2022-10-09T20:01:35.765Z,18.03
2022-10-09T20:04:07.601Z,21.83
2022-10-09T20:06:36.964Z,22.10
2022-10-09T20:09:05.353Z,18.15
2022-10-09T20:11:34.542Z,28.02
2022-10-09T20:14:01.889Z,16.53
2022-10-09T20:16:31.989Z,16.38
2022-10-09T20:19:00.120Z,16.13
2022-10-09T20:21:29.105Z,18.42
2022-10-09T20:23:57.388Z,21.42
2022-10-09T20:26:24.841Z,16.60
2022-10-09T20:28:55.150Z,18.23
2022-10-09T20:31:24.347Z,17.58
2022-10-09T20:33:51.750Z,17.83
2022-10-09T20:36:27.978Z,16.25
2022-10-09T20:38:56.536Z,19.40
2022-10-09T20:41:23.699Z,22.77
2022-10-09T20:43:52.746Z,26.20
2022-10-09T20:46:21.408Z,21.52
2022-10-09T20:48:48.506Z,16.95
2022-10-09T20:51:15.870Z,21.30
2022-10-09T20:53:42.599Z,19.08
2022-10-09T20:56:12.339Z,18.48
2022-10-09T20:58:39.630Z,18.10
2022-10-09T21:01:11.355Z,21.52
2022-10-09T21:03:39.167Z,21.13
2022-10-09T21:06:08.912Z,22.35
2022-10-09T21:08:36.013Z,21.85
2022-10-09T21:11:06.895Z,18.75
2022-10-09T21:13:33.960Z,22.30
2022-10-09T21:16:00.768Z,20.70
2022-10-09T21:18:27.414Z,20.58
2022-10-09T21:20:54.094Z,16.95
2022-10-09T21:23:20.933Z,16.13
2022-10-09T21:25:50.218Z,15.68
2022-10-09T21:28:19.727Z,17.30
2022-10-09T21:30:46.801Z,18.92
2022-10-09T21:33:13.800Z,15.55
2022-10-09T21:35:49.859Z,13.43
2022-10-09T21:38:19.336Z,11.85
2022-10-09T21:40:47.095Z,12.07
2022-10-09T21:43:13.867Z,10.63
2022-10-09T21:45:41.104Z,9.23
2022-10-09T21:48:08.246Z,9.68
2022-10-09T21:50:36.592Z,7.60
2022-10-09T21:53:04.371Z,8.50
2022-10-09T21:55:31.222Z,8.43
2022-10-09T21:57:57.893Z,8.93
2022-10-09T22:00:24.613Z,7.47
2022-10-09T22:02:51.647Z,10.02
2022-10-09T22:05:18.644Z,8.23
2022-10-09T22:07:45.369Z,8.77
2022-10-09T22:10:12.406Z,11.27
2022-10-09T22:12:39.236Z,9.27
2022-10-09T22:15:06.396Z,7.65
2022-10-09T22:17:33.107Z,9.23
2022-10-09T22:19:59.921Z,8.52
2022-10-09T22:22:26.876Z,9.48
2022-10-09T22:24:53.848Z,9.85
2022-10-09T22:27:20.969Z,7.68
2022-10-09T22:29:47.667Z,8.33
2022-10-09T22:32:14.387Z,8.85
2022-10-09T22:34:41.093Z,8.55
2022-10-09T22:37:07.785Z,10.00
2022-10-09T22:39:34.684Z,10.98
2022-10-09T22:42:01.365Z,8.13
2022-10-09T22:44:28.096Z,12.43
2022-10-09T22:46:54.883Z,10.20
2022-10-09T22:49:21.567Z,7.10
2022-10-09T22:51:48.276Z,10.05
2022-10-09T22:54:15.108Z,8.10
2022-10-09T22:56:45.081Z,8.88
2022-10-09T22:59:14.901Z,10.63
2022-10-09T23:01:48.982Z,7.90
2022-10-09T23:04:17.075Z,11.73
2022-10-09T23:06:44.542Z,8.17
2022-10-09T23:09:13.888Z,9.45
2022-10-09T23:11:40.867Z,10.93
2022-10-09T23:14:08.178Z,12.63
2022-10-09T23:16:34.903Z,10.88
2022-10-09T23:19:06.709Z,13.07
2022-10-09T23:21:34.758Z,12.05
2022-10-09T23:24:01.604Z,9.27
2022-10-09T23:26:31.108Z,10.73
2022-10-09T23:29:03.653Z,8.82
2022-10-09T23:31:30.855Z,11.27
2022-10-09T23:33:58.152Z,9.68
2022-10-09T23:36:26.961Z,11.15
2022-10-09T23:38:54.296Z,7.90
2022-10-09T23:41:24.297Z,8.07
2022-10-09T23:43:51.160Z,7.20
2022-10-09T23:46:21.218Z,6.10
2022-10-09T23:48:49.449Z,8.43
2022-10-09T23:51:17.208Z,7.68
2022-10-09T23:53:44.628Z,8.45
2022-10-09T23:56:18.221Z,9.67
2022-10-09T23:58:46.012Z,7.82
